This is the latest recevied weather packets stored in our database for station/object CE3SUR-16. If no packets are shown the sender has not sent any weather packets the latest 10 day(s).
| Time | Temp. | Humidity | Pressure | Rain* | Wind** | Luminosity | Snow |
|---|---|---|---|---|---|---|---|
| 1777610317 | 15° C | 99% | 957.1 hPa | - | - | - | - |
| 1777608517 | 15° C | 99% | 956.9 hPa | - | - | - | - |
| 1777606716 | 15.56° C | 99% | 956.6 hPa | - | - | - | - |
| 1777605020 | 16.67° C | 99% | 956.3 hPa | - | - | - | - |
| 1777604916 | 16.67° C | 99% | 956.3 hPa | - | - | - | - |
| 1777603116 | 16.67° C | 97% | 956.2 hPa | - | - | - | - |
| 1777601316 | 17.22° C | 96% | 955.9 hPa | - | - | - | - |
| 1777599589 | 17.22° C | 99% | 955.7 hPa | - | - | - | - |
| 1777599516 | 17.22° C | 99% | 955.7 hPa | - | - | - | - |
| 1777597715 | 17.22° C | 99% | 955.6 hPa | - | - | - | - |
| 1777595915 | 17.22° C | 99% | 955.2 hPa | - | - | - | - |
| 1777594114 | 17.22° C | 99% | 954.7 hPa | - | - | - | - |
| 1777592314 | 20° C | 87% | 954.1 hPa | - | - | - | - |
| 1777514505 | 22.78° C | 66% | 945.6 hPa | - | - | - | - |
| 1777512705 | 23.33° C | 66% | 945.8 hPa | - | - | - | - |
| 1777510905 | 23.33° C | 66% | 946.1 hPa | - | - | - | - |
| 1777509104 | 23.33° C | 66% | 946.1 hPa | - | - | - | - |
| 1777507304 | 23.33° C | 66% | 946.1 hPa | - | - | - | - |
| 1777505506 | 23.33° C | 66% | 946.2 hPa | - | - | - | - |
| 1777503706 | 23.33° C | 66% | 946.1 hPa | - | - | - | - |
| 1777501906 | 23.33° C | 66% | 946 hPa | - | - | - | - |
| 1777500105 | 23.33° C | 66% | 945.8 hPa | - | - | - | - |
| 1777498304 | 23.89° C | 65% | 945.8 hPa | - | - | - | - |
| 1777496504 | 23.89° C | 65% | 945.8 hPa | - | - | - | - |
| 1777495592 | 23.89° C | 66% | 946 hPa | - | - | - | - |
* Rain since midnight (hover to see other rain measurements)
** Current wind speed in m/s (hover to see current wind gust speed)